TimeEST,TemperatureF,Dew PointF,Humidity,Sea Level PressureIn,VisibilityMPH,Wind Direction,Wind SpeedMPH,Gust SpeedMPH,PrecipitationIn,Events,Conditions,WindDirDegrees,DateUTC
12:02 AM,30.2,23.0,75,30.24,6.0,West,8.1,-,0.00,Snow,Light Snow,270,2013-12-24 05:02:00
12:33 AM,30.2,23.0,75,30.24,7.0,SW,5.8,-,0.00,Snow,Light Snow,230,2013-12-24 05:33:00
12:51 AM,28.9,24.1,82,30.27,3.0,SW,4.6,-,0.01,Snow,Light Snow,220,2013-12-24 05:51:00
1:23 AM,28.4,23.0,80,30.23,4.0,SW,5.8,16.1,0.00,Snow,Light Snow,230,2013-12-24 06:23:00
1:39 AM,28.4,23.0,80,30.23,2.0,SW,10.4,-,0.00,Snow,Light Snow,230,2013-12-24 06:39:00
1:51 AM,28.9,23.0,78,30.26,3.0,SW,9.2,-,0.00,Snow,Light Snow,220,2013-12-24 06:51:00
2:17 AM,28.4,23.0,80,30.23,2.5,SW,10.4,-,0.00,Snow,Light Snow,230,2013-12-24 07:17:00
2:30 AM,28.4,21.2,74,30.23,3.0,SW,6.9,-,0.00,Snow,Light Snow,230,2013-12-24 07:30:00
2:51 AM,28.0,23.0,81,30.27,2.5,WSW,6.9,-,0.00,Snow,Light Snow,240,2013-12-24 07:51:00
3:13 AM,26.6,21.2,80,30.24,5.0,WSW,8.1,-,0.00,Snow,Light Snow,240,2013-12-24 08:13:00
3:51 AM,27.0,21.0,78,30.26,3.0,SW,10.4,-,0.00,Snow,Light Snow,230,2013-12-24 08:51:00
4:15 AM,26.6,21.2,80,30.23,2.5,SW,8.1,-,0.00,Snow,Light Snow,230,2013-12-24 09:15:00
4:28 AM,26.6,21.2,80,30.22,4.0,SW,9.2,-,0.00,Snow,Light Snow,230,2013-12-24 09:28:00
4:51 AM,26.1,21.0,81,30.25,4.0,WSW,13.8,17.3,0.00,Snow,Light Snow,240,2013-12-24 09:51:00
5:01 AM,26.6,19.4,74,30.22,2.0,SW,11.5,19.6,0.00,Snow,Light Snow,230,2013-12-24 10:01:00
5:10 AM,26.6,21.2,80,30.22,1.2,WSW,6.9,17.3,0.00,Snow,Light Snow,240,2013-12-24 10:10:00
5:18 AM,24.8,21.2,86,30.22,0.5,WSW,10.4,-,0.01,Fog-Snow,Snow,250,2013-12-24 10:18:00
5:30 AM,24.8,23.0,93,30.22,0.2,WSW,15.0,24.2,0.04,Fog-Snow,Heavy Snow,250,2013-12-24 10:30:00
5:51 AM,25.0,21.9,88,30.26,0.5,West,12.7,-,0.06,Fog-Snow,Snow,270,2013-12-24 10:51:00
6:03 AM,24.8,21.2,86,30.23,1.0,West,15.0,24.2,0.00,Snow,Light Snow,270,2013-12-24 11:03:00
6:13 AM,24.8,21.2,86,30.23,0.8,West,13.8,27.6,0.00,Snow,Light Snow,270,2013-12-24 11:13:00
6:17 AM,24.8,21.2,86,30.23,1.0,West,13.8,26.5,0.00,Snow,Light Snow,280,2013-12-24 11:17:00
6:24 AM,24.8,19.4,80,30.23,1.8,West,13.8,26.5,0.00,Snow,Light Snow,270,2013-12-24 11:24:00
6:38 AM,24.8,19.4,80,30.23,2.0,West,15.0,23.0,0.00,Snow,Light Snow,270,2013-12-24 11:38:00
6:51 AM,25.0,18.0,75,30.27,4.0,West,16.1,24.2,0.00,Snow,Light Snow,270,2013-12-24 11:51:00
7:30 AM,24.8,12.2,59,30.25,9.0,West,17.3,21.9,0.00,,Overcast,280,2013-12-24 12:30:00
7:51 AM,25.0,12.0,58,30.28,2.0,West,17.3,23.0,0.08,,Overcast,270,2013-12-24 12:51:00
7:53 AM,24.8,12.2,59,30.25,10.0,West,17.3,23.0,0.00,,Overcast,270,2013-12-24 12:53:00
8:20 AM,24.8,15.8,69,30.26,1.8,West,12.7,21.9,0.01,Snow,Light Snow,260,2013-12-24 13:20:00
8:48 AM,23.0,17.6,80,30.27,0.8,West,11.5,19.6,0.01,Snow,Light Snow,270,2013-12-24 13:48:00
8:51 AM,21.9,17.1,82,30.30,0.8,West,15.0,21.9,0.01,Snow,Light Snow,260,2013-12-24 13:51:00
9:05 AM,21.2,17.6,86,30.28,0.5,West,12.7,21.9,0.00,Snow,Snow,280,2013-12-24 14:05:00
9:30 AM,21.2,15.8,80,30.28,0.8,West,11.5,20.7,0.00,Snow,Light Snow,260,2013-12-24 14:30:00
9:36 AM,21.2,15.8,80,30.29,1.0,West,15.0,21.9,0.00,Snow,Light Snow,270,2013-12-24 14:36:00
9:40 AM,21.2,15.8,80,30.29,0.5,West,15.0,24.2,0.00,Snow,Snow,280,2013-12-24 14:40:00
9:48 AM,21.2,15.8,80,30.29,1.0,West,16.1,24.2,0.00,Snow,Light Snow,270,2013-12-24 14:48:00
9:51 AM,21.9,15.1,75,30.32,1.0,West,15.0,23.0,0.00,Snow,Light Snow,260,2013-12-24 14:51:00
10:14 AM,21.2,15.8,80,30.30,0.5,West,13.8,20.7,0.00,Snow,Snow,260,2013-12-24 15:14:00
10:24 AM,21.2,15.8,80,30.30,1.0,SW,8.1,21.9,0.00,Snow,Light Snow,230,2013-12-24 15:24:00
10:28 AM,21.2,15.8,80,30.30,3.0,SW,8.1,-,0.00,Snow,Light Snow,220,2013-12-24 15:28:00
10:49 AM,21.2,12.2,68,30.30,4.0,West,13.8,23.0,0.00,Snow,Light Snow,260,2013-12-24 15:49:00
10:51 AM,21.9,14.0,72,30.33,2.0,WSW,15.0,23.0,0.00,Snow,Light Snow,250,2013-12-24 15:51:00
10:59 AM,21.2,15.8,80,30.30,1.0,West,8.1,18.4,0.00,Snow,Light Snow,260,2013-12-24 15:59:00
11:01 AM,21.2,15.8,80,30.30,0.8,West,10.4,18.4,0.00,Snow,Light Snow,260,2013-12-24 16:01:00
11:08 AM,21.2,17.6,86,30.30,0.2,West,12.7,-,0.00,Fog-Snow,Snow,260,2013-12-24 16:08:00
11:20 AM,21.2,17.6,86,30.30,0.5,West,12.7,19.6,0.00,Fog-Snow,Snow,270,2013-12-24 16:20:00
11:44 AM,21.2,12.2,68,30.29,0.2,WNW,11.5,-,0.02,Snow,Heavy Snow,290,2013-12-24 16:44:00
11:51 AM,21.9,14.0,72,30.32,0.2,WNW,11.5,-,0.02,Snow,Heavy Snow,290,2013-12-24 16:51:00
11:58 AM,21.2,12.2,68,30.29,8.0,NW,16.1,21.9,0.00,Snow,Light Snow,310,2013-12-24 16:58:00
12:51 PM,21.9,15.1,75,30.33,4.0,West,12.7,20.7,0.00,Snow,Light Snow,280,2013-12-24 17:51:00
1:51 PM,21.0,12.9,71,30.37,7.0,West,16.1,24.2,0.00,,Overcast,270,2013-12-24 18:51:00
2:19 PM,19.4,12.2,74,30.34,1.5,West,10.4,24.2,0.00,Snow,Light Snow,280,2013-12-24 19:19:00
2:31 PM,19.4,12.2,74,30.34,3.0,West,13.8,24.2,0.06,Snow,Light Snow,270,2013-12-24 19:31:00
2:51 PM,19.9,12.0,71,30.39,3.0,West,13.8,23.0,0.06,Snow,Light Snow,260,2013-12-24 19:51:00
3:29 PM,19.4,12.2,74,30.37,1.8,West,13.8,20.7,0.00,Snow,Light Snow,280,2013-12-24 20:29:00
3:40 PM,19.4,15.8,86,30.38,0.8,West,9.2,-,0.00,Snow,Light Snow,280,2013-12-24 20:40:00
3:48 PM,19.4,14.0,80,30.38,1.8,WNW,11.5,-,0.00,Snow,Light Snow,290,2013-12-24 20:48:00
3:51 PM,19.9,14.0,78,30.42,2.5,WNW,11.5,-,0.01,Snow,Light Snow,290,2013-12-24 20:51:00
4:07 PM,19.4,14.0,80,30.39,3.0,West,9.2,18.4,0.00,Snow,Light Snow,260,2013-12-24 21:07:00
4:16 PM,19.4,14.0,80,30.39,2.5,West,13.8,25.3,0.00,Snow,Light Snow,280,2013-12-24 21:16:00
4:27 PM,19.4,14.0,80,30.40,0.8,WNW,12.7,21.9,0.00,Snow,Light Snow,290,2013-12-24 21:27:00
4:34 PM,19.4,15.8,86,30.40,0.5,WNW,11.5,21.9,0.00,Snow,Snow,300,2013-12-24 21:34:00
4:45 PM,19.4,15.8,86,30.40,1.0,WNW,12.7,-,0.00,Snow,Light Snow,290,2013-12-24 21:45:00
4:51 PM,19.9,14.0,78,30.44,0.5,WNW,12.7,21.9,0.00,Snow,Snow,290,2013-12-24 21:51:00
5:05 PM,19.4,15.8,86,30.41,1.0,WNW,11.5,-,0.01,Snow,Light Snow,290,2013-12-24 22:05:00
5:09 PM,19.4,14.0,80,30.41,2.5,WNW,12.7,-,0.01,Snow,Light Snow,300,2013-12-24 22:09:00
5:16 PM,19.4,12.2,74,30.41,8.0,NW,10.4,18.4,0.01,Snow,Light Snow,310,2013-12-24 22:16:00
5:35 PM,19.4,12.2,74,30.42,4.0,WNW,12.7,20.7,0.01,Snow,Light Snow,300,2013-12-24 22:35:00
5:51 PM,19.9,12.0,71,30.46,10.0,NW,11.5,19.6,0.01,,Overcast,310,2013-12-24 22:51:00
6:02 PM,19.4,12.2,74,30.43,10.0,WNW,11.5,-,N/A,,Overcast,300,2013-12-24 23:02:00
6:10 PM,19.4,12.2,74,30.44,1.8,WNW,12.7,18.4,0.00,Snow,Light Snow,300,2013-12-24 23:10:00
6:26 PM,19.4,14.0,80,30.44,3.0,WNW,9.2,-,0.00,Snow,Light Snow,300,2013-12-24 23:26:00
6:33 PM,19.4,14.0,80,30.45,1.8,WNW,11.5,-,0.00,Snow,Light Snow,290,2013-12-24 23:33:00
6:51 PM,19.9,14.0,78,30.49,1.8,WNW,8.1,17.3,0.00,Snow,Light Snow,290,2013-12-24 23:51:00
6:57 PM,19.4,12.2,74,30.46,3.0,WNW,11.5,-,0.00,Snow,Light Snow,290,2013-12-24 23:57:00
7:08 PM,19.4,14.0,80,30.46,1.8,WNW,6.9,-,0.00,Snow,Light Snow,290,2013-12-25 00:08:00
7:26 PM,19.4,14.0,80,30.47,0.8,NW,10.4,-,0.00,Snow,Light Snow,310,2013-12-25 00:26:00
7:30 PM,19.4,15.8,86,30.47,0.5,NW,12.7,18.4,0.01,Snow,Snow,310,2013-12-25 00:30:00
7:40 PM,19.4,15.8,86,30.47,0.8,Variable,5.8,-,0.01,Snow,Light Snow,0,2013-12-25 00:40:00
7:44 PM,19.4,14.0,80,30.47,2.5,NW,8.1,-,0.01,Snow,Light Snow,310,2013-12-25 00:44:00
7:51 PM,19.9,14.0,78,30.51,1.5,WNW,9.2,18.4,0.01,Snow,Light Snow,300,2013-12-25 00:51:00
7:55 PM,19.4,14.0,80,30.48,0.8,WNW,9.2,-,0.01,Snow,Light Snow,290,2013-12-25 00:55:00
8:05 PM,19.4,15.8,86,30.48,0.8,NNW,8.1,-,0.01,Snow,Light Snow,330,2013-12-25 01:05:00
8:07 PM,19.4,15.8,86,30.48,1.0,NW,6.9,-,0.02,Snow,Light Snow,310,2013-12-25 01:07:00
8:15 PM,19.4,15.8,86,30.48,3.0,WNW,9.2,-,0.02,Snow,Light Snow,300,2013-12-25 01:15:00
8:51 PM,19.9,9.0,62,30.52,10.0,WNW,12.7,19.6,0.02,,Overcast,300,2013-12-25 01:51:00
8:58 PM,19.4,8.6,63,30.48,10.0,NW,11.5,19.6,N/A,,Overcast,310,2013-12-25 01:58:00
9:51 PM,19.9,12.0,71,30.52,4.0,WNW,8.1,-,0.00,Snow,Light Snow,300,2013-12-25 02:51:00
9:58 PM,19.4,10.4,68,30.48,6.0,NW,6.9,-,0.00,Snow,Light Snow,310,2013-12-25 02:58:00
10:15 PM,19.4,10.4,68,30.48,8.0,WNW,9.2,-,0.00,Snow,Light Snow,300,2013-12-25 03:15:00
10:24 PM,19.4,10.4,68,30.48,8.0,NW,8.1,-,0.00,Snow,Light Snow,320,2013-12-25 03:24:00
10:51 PM,19.9,9.0,62,30.53,9.0,NNW,8.1,-,0.00,,Overcast,330,2013-12-25 03:51:00
11:15 PM,19.4,12.2,74,30.49,2.5,NNW,3.5,-,0.00,Snow,Light Snow,330,2013-12-25 04:15:00
11:22 PM,19.4,12.2,74,30.48,1.8,WNW,5.8,-,0.00,Snow,Light Snow,300,2013-12-25 04:22:00
11:35 PM,19.4,12.2,74,30.48,3.0,NW,8.1,-,0.00,Snow,Light Snow,320,2013-12-25 04:35:00
11:51 PM,19.0,12.0,74,30.52,2.5,NW,6.9,-,0.00,Snow,Light Snow,320,2013-12-25 04:51:00